sensor_id;sensor_type;location;lat;lon;timestamp;noise_LAeq;noise_LA_min;noise_LA_max;noise_LA01;noise_LA95
1754;Laerm;58380;48.312;9.246;2023-02-28T07:50:06;45.69;38.24;53.65;;
1754;Laerm;58380;48.312;9.246;2023-02-28T07:52:32;48.39;39.53;68.59;;
1754;Laerm;58380;48.312;9.246;2023-02-28T07:54:58;47.67;38.65;59.63;;
1754;Laerm;58380;48.312;9.246;2023-02-28T07:57:23;48.46;37.95;61.70;;
1754;Laerm;58380;48.312;9.246;2023-02-28T07:59:49;44.28;34.61;61.21;;
1754;Laerm;58380;48.312;9.246;2023-02-28T08:02:16;46.20;39.02;65.21;;
1754;Laerm;58380;48.312;9.246;2023-02-28T08:04:42;47.58;41.89;59.64;;
1754;Laerm;58380;48.312;9.246;2023-02-28T08:07:07;47.86;41.42;56.34;;
1754;Laerm;58380;48.312;9.246;2023-02-28T08:09:33;48.19;39.34;60.97;;
1754;Laerm;58380;48.312;9.246;2023-02-28T08:11:59;47.68;35.02;60.07;;
1754;Laerm;58380;48.312;9.246;2023-02-28T08:14:25;48.35;35.88;62.89;;
1754;Laerm;58380;48.312;9.246;2023-02-28T08:16:50;44.63;37.79;52.69;;
1754;Laerm;58380;48.312;9.246;2023-02-28T08:19:16;46.98;39.43;57.79;;
1754;Laerm;58380;48.312;9.246;2023-02-28T08:21:41;48.05;35.83;66.53;;
1754;Laerm;58380;48.312;9.246;2023-02-28T08:24:07;48.92;41.13;59.77;;
1754;Laerm;58380;48.312;9.246;2023-02-28T08:26:32;55.59;37.42;83.75;;
1754;Laerm;58380;48.312;9.246;2023-02-28T08:28:58;48.77;38.24;63.42;;
1754;Laerm;58380;48.312;9.246;2023-02-28T08:31:23;49.86;38.84;60.82;;
1754;Laerm;58380;48.312;9.246;2023-02-28T08:33:49;50.34;39.75;71.56;;
1754;Laerm;58380;48.312;9.246;2023-02-28T08:36:17;47.07;38.55;61.85;;
1754;Laerm;58380;48.312;9.246;2023-02-28T08:38:43;51.39;38.69;67.99;;
1754;Laerm;58380;48.312;9.246;2023-02-28T08:41:11;49.66;41.03;64.73;;
1754;Laerm;58380;48.312;9.246;2023-02-28T08:43:38;48.11;39.65;61.76;;
1754;Laerm;58380;48.312;9.246;2023-02-28T08:46:05;49.06;41.14;59.35;;
1754;Laerm;58380;48.312;9.246;2023-02-28T08:48:34;48.70;40.12;58.69;;
1754;Laerm;58380;48.312;9.246;2023-02-28T08:51:05;46.74;37.96;55.87;;
1754;Laerm;58380;48.312;9.246;2023-02-28T08:53:31;48.50;39.55;67.67;;
1754;Laerm;58380;48.312;9.246;2023-02-28T08:56:03;44.38;33.18;56.05;;
1754;Laerm;58380;48.312;9.246;2023-02-28T08:58:29;48.17;40.38;59.54;;
1754;Laerm;58380;48.312;9.246;2023-02-28T09:00:55;46.05;36.82;62.13;;
1754;Laerm;58380;48.312;9.246;2023-02-28T09:03:21;43.19;35.34;58.78;;
1754;Laerm;58380;48.312;9.246;2023-02-28T09:05:59;45.39;35.57;53.15;;
1754;Laerm;58380;48.312;9.246;2023-02-28T09:08:30;47.79;36.62;55.55;;
1754;Laerm;58380;48.312;9.246;2023-02-28T09:10:57;50.74;42.24;75.21;;
1754;Laerm;58380;48.312;9.246;2023-02-28T09:13:26;47.63;39.95;66.17;;
1754;Laerm;58380;48.312;9.246;2023-02-28T09:15:57;46.44;34.53;61.42;;
1754;Laerm;58380;48.312;9.246;2023-02-28T09:18:22;45.03;35.51;54.84;;
1754;Laerm;58380;48.312;9.246;2023-02-28T09:20:48;46.40;33.09;57.06;;
1754;Laerm;58380;48.312;9.246;2023-02-28T09:23:13;51.86;42.22;66.62;;
1754;Laerm;58380;48.312;9.246;2023-02-28T09:25:53;48.23;39.27;57.68;;
1754;Laerm;58380;48.312;9.246;2023-02-28T09:28:20;49.72;36.02;70.86;;
1754;Laerm;58380;48.312;9.246;2023-02-28T09:30:48;49.27;38.99;65.28;;
1754;Laerm;58380;48.312;9.246;2023-02-28T09:33:16;47.13;38.14;54.38;;
1754;Laerm;58380;48.312;9.246;2023-02-28T09:35:42;45.55;37.58;65.12;;
1754;Laerm;58380;48.312;9.246;2023-02-28T09:38:08;47.22;35.83;58.94;;
1754;Laerm;58380;48.312;9.246;2023-02-28T09:40:49;46.06;35.94;61.24;;
1754;Laerm;58380;48.312;9.246;2023-02-28T09:43:17;47.16;37.14;58.51;;
1754;Laerm;58380;48.312;9.246;2023-02-28T09:45:58;46.47;38.88;66.30;;
1754;Laerm;58380;48.312;9.246;2023-02-28T09:48:33;48.00;37.84;59.15;;
1754;Laerm;58380;48.312;9.246;2023-02-28T09:51:18;49.26;39.24;68.33;;
1754;Laerm;58380;48.312;9.246;2023-02-28T09:53:49;52.29;41.87;69.59;;
1754;Laerm;58380;48.312;9.246;2023-02-28T09:56:22;49.19;40.31;69.56;;
1754;Laerm;58380;48.312;9.246;2023-02-28T10:02:18;46.82;35.87;63.03;;
1754;Laerm;58380;48.312;9.246;2023-02-28T10:04:59;49.23;37.77;60.57;;
1754;Laerm;58380;48.312;9.246;2023-02-28T10:10:49;49.26;41.72;56.34;;
1754;Laerm;58380;48.312;9.246;2023-02-28T10:13:36;47.20;35.89;63.16;;
1754;Laerm;58380;48.312;9.246;2023-02-28T10:16:14;46.76;34.37;73.09;;
1754;Laerm;58380;48.312;9.246;2023-02-28T10:18:49;46.79;36.61;56.82;;
1754;Laerm;58380;48.312;9.246;2023-02-28T10:21:35;44.14;34.23;57.30;;
1754;Laerm;58380;48.312;9.246;2023-02-28T10:24:28;49.14;37.94;71.26;;
1754;Laerm;58380;48.312;9.246;2023-02-28T10:27:33;50.53;37.36;69.51;;
1754;Laerm;58380;48.312;9.246;2023-02-28T10:29:59;50.28;38.64;65.44;;
1754;Laerm;58380;48.312;9.246;2023-02-28T10:32:30;50.76;37.81;72.85;;
1754;Laerm;58380;48.312;9.246;2023-02-28T10:37:37;49.17;35.15;74.20;;
1754;Laerm;58380;48.312;9.246;2023-02-28T10:40:26;49.42;40.28;75.42;;
1754;Laerm;58380;48.312;9.246;2023-02-28T10:43:00;50.96;38.53;71.16;;
1754;Laerm;58380;48.312;9.246;2023-02-28T10:45:29;53.42;37.68;79.61;;
1754;Laerm;58380;48.312;9.246;2023-02-28T10:48:39;49.39;36.77;68.59;;
1754;Laerm;58380;48.312;9.246;2023-02-28T10:51:10;49.87;39.07;66.64;;
1754;Laerm;58380;48.312;9.246;2023-02-28T10:53:48;50.17;34.45;71.44;;
1754;Laerm;58380;48.312;9.246;2023-02-28T10:56:22;48.59;37.44;67.72;;
1754;Laerm;58380;48.312;9.246;2023-02-28T10:58:55;49.06;39.26;59.65;;
1754;Laerm;58380;48.312;9.246;2023-02-28T11:01:44;48.48;39.50;65.40;;
1754;Laerm;58380;48.312;9.246;2023-02-28T11:07:23;46.47;33.72;58.53;;
1754;Laerm;58380;48.312;9.246;2023-02-28T11:09:59;46.77;38.18;61.13;;
1754;Laerm;58380;48.312;9.246;2023-02-28T11:12:38;49.30;38.20;62.17;;
1754;Laerm;58380;48.312;9.246;2023-02-28T11:15:32;48.42;35.01;73.77;;
1754;Laerm;58380;48.312;9.246;2023-02-28T11:18:18;46.33;33.92;63.99;;
1754;Laerm;58380;48.312;9.246;2023-02-28T11:20:52;47.94;37.18;67.17;;
1754;Laerm;58380;48.312;9.246;2023-02-28T11:23:20;47.45;37.19;68.13;;
1754;Laerm;58380;48.312;9.246;2023-02-28T11:25:54;46.90;41.17;59.09;;
1754;Laerm;58380;48.312;9.246;2023-02-28T11:28:41;47.65;35.83;63.02;;
1754;Laerm;58380;48.312;9.246;2023-02-28T11:33:50;45.61;34.12;68.35;;
1754;Laerm;58380;48.312;9.246;2023-02-28T11:36:28;48.23;38.90;71.00;;
1754;Laerm;58380;48.312;9.246;2023-02-28T11:39:10;46.29;35.93;57.95;;
1754;Laerm;58380;48.312;9.246;2023-02-28T11:47:44;49.01;37.54;60.31;;
1754;Laerm;58380;48.312;9.246;2023-02-28T11:53:06;48.92;35.34;68.98;;
1754;Laerm;58380;48.312;9.246;2023-02-28T11:55:42;54.36;38.90;78.33;;
1754;Laerm;58380;48.312;9.246;2023-02-28T11:59:01;47.49;37.59;67.93;;
1754;Laerm;58380;48.312;9.246;2023-02-28T12:01:45;46.08;36.32;66.51;;
1754;Laerm;58380;48.312;9.246;2023-02-28T12:04:29;49.35;39.43;63.77;;
1754;Laerm;58380;48.312;9.246;2023-02-28T12:16:09;46.96;39.35;55.67;;
1754;Laerm;58380;48.312;9.246;2023-02-28T12:19:06;47.41;38.04;58.27;;
1754;Laerm;58380;48.312;9.246;2023-02-28T12:22:46;47.23;35.36;72.01;;
1754;Laerm;58380;48.312;9.246;2023-02-28T12:25:00;50.74;37.50;62.12;;
1754;Laerm;58380;48.312;9.246;2023-02-28T12:27:31;48.06;36.94;65.12;;
1754;Laerm;58380;48.312;9.246;2023-02-28T12:30:08;45.49;33.36;56.05;;
1754;Laerm;58380;48.312;9.246;2023-02-28T12:32:47;44.60;32.44;55.27;;
1754;Laerm;58380;48.312;9.246;2023-02-28T12:35:22;50.66;38.05;67.00;;
1754;Laerm;58380;48.312;9.246;2023-02-28T12:37:59;46.85;35.87;65.62;;
1754;Laerm;58380;48.312;9.246;2023-02-28T12:40:43;48.74;39.16;60.90;;
1754;Laerm;58380;48.312;9.246;2023-02-28T12:43:13;45.88;38.99;59.46;;
1754;Laerm;58380;48.312;9.246;2023-02-28T12:45:58;48.61;36.69;68.29;;
1754;Laerm;58380;48.312;9.246;2023-02-28T12:48:31;47.81;37.98;62.81;;
1754;Laerm;58380;48.312;9.246;2023-02-28T12:51:05;49.99;39.52;69.55;;
1754;Laerm;58380;48.312;9.246;2023-02-28T12:56:48;50.87;38.84;69.96;;
1754;Laerm;58380;48.312;9.246;2023-02-28T12:59:39;52.61;37.38;79.85;;
1754;Laerm;58380;48.312;9.246;2023-02-28T13:10:50;53.64;35.82;65.25;;
1754;Laerm;58380;48.312;9.246;2023-02-28T13:13:23;49.75;39.62;61.90;;
1754;Laerm;58380;48.312;9.246;2023-02-28T13:16:05;45.74;35.88;56.49;;
1754;Laerm;58380;48.312;9.246;2023-02-28T13:18:43;45.74;36.86;57.06;;
1754;Laerm;58380;48.312;9.246;2023-02-28T13:21:27;43.57;32.59;59.89;;
1754;Laerm;58380;48.312;9.246;2023-02-28T13:32:29;44.86;33.89;55.38;;
1754;Laerm;58380;48.312;9.246;2023-02-28T13:40:39;49.10;37.85;60.17;;
1754;Laerm;58380;48.312;9.246;2023-02-28T13:42:49;48.71;36.76;63.88;;
1754;Laerm;58380;48.312;9.246;2023-02-28T13:45:28;46.60;36.54;63.06;;
1754;Laerm;58380;48.312;9.246;2023-02-28T13:48:00;44.39;36.92;57.35;;
1754;Laerm;58380;48.312;9.246;2023-02-28T13:56:05;48.40;37.46;61.77;;
1754;Laerm;58380;48.312;9.246;2023-02-28T13:59:01;52.81;36.22;76.54;;
1754;Laerm;58380;48.312;9.246;2023-02-28T14:05:05;48.19;38.54;60.28;;
1754;Laerm;58380;48.312;9.246;2023-02-28T14:07:43;48.65;39.40;64.72;;
1754;Laerm;58380;48.312;9.246;2023-02-28T14:10:25;48.76;37.73;78.27;;
1754;Laerm;58380;48.312;9.246;2023-02-28T14:12:59;45.54;36.77;63.08;;
1754;Laerm;58380;48.312;9.246;2023-02-28T14:15:57;46.04;38.32;59.87;;
1754;Laerm;58380;48.312;9.246;2023-02-28T14:18:29;49.18;40.54;68.61;;
1754;Laerm;58380;48.312;9.246;2023-02-28T14:21:26;47.52;35.90;69.04;;
1754;Laerm;58380;48.312;9.246;2023-02-28T14:30:26;44.91;35.42;57.24;;
1754;Laerm;58380;48.312;9.246;2023-02-28T14:33:18;46.55;38.16;55.95;;
1754;Laerm;58380;48.312;9.246;2023-02-28T14:36:06;44.40;37.60;52.65;;
1754;Laerm;58380;48.312;9.246;2023-02-28T14:38:57;47.66;37.88;56.45;;
1754;Laerm;58380;48.312;9.246;2023-02-28T14:44:02;45.56;35.66;58.77;;
1754;Laerm;58380;48.312;9.246;2023-02-28T14:46:38;47.94;36.34;58.06;;
1754;Laerm;58380;48.312;9.246;2023-02-28T14:49:05;49.83;40.51;59.28;;
1754;Laerm;58380;48.312;9.246;2023-02-28T14:51:33;47.72;37.89;58.98;;
1754;Laerm;58380;48.312;9.246;2023-02-28T14:54:01;46.12;39.28;53.27;;
1754;Laerm;58380;48.312;9.246;2023-02-28T14:56:36;47.77;38.65;66.37;;
1754;Laerm;58380;48.312;9.246;2023-02-28T14:59:03;48.78;40.47;70.90;;
1754;Laerm;58380;48.312;9.246;2023-02-28T15:01:30;48.27;39.01;68.05;;
1754;Laerm;58380;48.312;9.246;2023-02-28T15:04:05;47.54;36.59;75.44;;
1754;Laerm;58380;48.312;9.246;2023-02-28T15:06:32;52.93;39.86;79.98;;
1754;Laerm;58380;48.312;9.246;2023-02-28T15:09:16;50.07;40.45;69.61;;
1754;Laerm;58380;48.312;9.246;2023-02-28T15:11:47;56.72;40.41;79.32;;
1754;Laerm;58380;48.312;9.246;2023-02-28T15:14:21;51.58;37.87;72.24;;
1754;Laerm;58380;48.312;9.246;2023-02-28T15:16:57;49.52;43.25;62.40;;
1754;Laerm;58380;48.312;9.246;2023-02-28T15:19:36;48.00;40.65;55.99;;
1754;Laerm;58380;48.312;9.246;2023-02-28T15:22:16;47.01;37.63;55.63;;
1754;Laerm;58380;48.312;9.246;2023-02-28T15:24:50;47.40;35.77;56.55;;
1754;Laerm;58380;48.312;9.246;2023-02-28T15:27:25;46.79;36.65;55.13;;
1754;Laerm;58380;48.312;9.246;2023-02-28T15:29:59;45.57;37.33;58.66;;
1754;Laerm;58380;48.312;9.246;2023-02-28T15:32:38;46.62;36.17;56.63;;
1754;Laerm;58380;48.312;9.246;2023-02-28T15:35:26;47.07;38.14;58.84;;
1754;Laerm;58380;48.312;9.246;2023-02-28T15:40:42;46.57;39.32;63.40;;
1754;Laerm;58380;48.312;9.246;2023-02-28T15:43:24;45.70;36.89;53.88;;
1754;Laerm;58380;48.312;9.246;2023-02-28T15:46:07;48.79;39.46;64.89;;
1754;Laerm;58380;48.312;9.246;2023-02-28T15:48:55;52.28;38.26;78.74;;
1754;Laerm;58380;48.312;9.246;2023-02-28T15:54:04;49.35;39.63;59.95;;
1754;Laerm;58380;48.312;9.246;2023-02-28T15:56:35;45.91;38.47;55.38;;
1754;Laerm;58380;48.312;9.246;2023-02-28T15:59:15;45.48;34.23;66.86;;
1754;Laerm;58380;48.312;9.246;2023-02-28T16:01:40;48.62;37.26;61.24;;
1754;Laerm;58380;48.312;9.246;2023-02-28T16:04:19;44.72;36.63;53.40;;
1754;Laerm;58380;48.312;9.246;2023-02-28T16:07:00;48.69;39.32;68.59;;
1754;Laerm;58380;48.312;9.246;2023-02-28T16:09:26;47.44;40.03;66.22;;
1754;Laerm;58380;48.312;9.246;2023-02-28T16:11:55;46.89;40.15;59.28;;
1754;Laerm;58380;48.312;9.246;2023-02-28T16:14:25;45.74;34.14;55.38;;
1754;Laerm;58380;48.312;9.246;2023-02-28T16:16:55;46.40;38.70;65.34;;
1754;Laerm;58380;48.312;9.246;2023-02-28T16:19:22;46.89;36.80;61.67;;
1754;Laerm;58380;48.312;9.246;2023-02-28T16:21:49;44.25;37.87;53.60;;
1754;Laerm;58380;48.312;9.246;2023-02-28T16:24:14;47.91;39.01;58.09;;
1754;Laerm;58380;48.312;9.246;2023-02-28T16:26:44;44.72;37.33;52.13;;
1754;Laerm;58380;48.312;9.246;2023-02-28T16:29:27;47.18;40.02;53.85;;
1754;Laerm;58380;48.312;9.246;2023-02-28T16:31:54;49.54;36.66;66.58;;
1754;Laerm;58380;48.312;9.246;2023-02-28T16:34:20;47.13;38.49;58.12;;
1754;Laerm;58380;48.312;9.246;2023-02-28T16:36:50;45.17;39.24;52.64;;
1754;Laerm;58380;48.312;9.246;2023-02-28T16:39:15;43.89;37.01;49.40;;
1754;Laerm;58380;48.312;9.246;2023-02-28T16:41:45;43.61;36.52;50.99;;
1754;Laerm;58380;48.312;9.246;2023-02-28T16:44:29;46.23;39.03;54.12;;
1754;Laerm;58380;48.312;9.246;2023-02-28T16:46:55;47.31;35.57;58.09;;
1754;Laerm;58380;48.312;9.246;2023-02-28T16:49:20;44.18;33.98;55.21;;
1754;Laerm;58380;48.312;9.246;2023-02-28T16:51:46;48.54;37.56;64.75;;
1754;Laerm;58380;48.312;9.246;2023-02-28T16:54:12;45.55;33.91;63.02;;
1754;Laerm;58380;48.312;9.246;2023-02-28T16:56:43;43.30;33.30;57.87;;
1754;Laerm;58380;48.312;9.246;2023-02-28T16:59:11;43.20;35.23;51.93;;
1754;Laerm;58380;48.312;9.246;2023-02-28T17:01:36;44.38;34.49;51.42;;
1754;Laerm;58380;48.312;9.246;2023-02-28T17:04:02;43.74;34.92;54.19;;
1754;Laerm;58380;48.312;9.246;2023-02-28T17:06:29;44.73;37.09;52.99;;
1754;Laerm;58380;48.312;9.246;2023-02-28T17:08:57;46.10;36.50;58.07;;
1754;Laerm;58380;48.312;9.246;2023-02-28T17:11:24;49.41;41.48;59.28;;
1754;Laerm;58380;48.312;9.246;2023-02-28T17:13:50;45.79;37.98;55.87;;
1754;Laerm;58380;48.312;9.246;2023-02-28T17:16:32;45.42;35.47;53.95;;
1754;Laerm;58380;48.312;9.246;2023-02-28T17:19:02;44.89;37.48;54.54;;
1754;Laerm;58380;48.312;9.246;2023-02-28T17:21:29;46.48;38.14;58.57;;
1754;Laerm;58380;48.312;9.246;2023-02-28T17:23:55;43.40;36.13;51.15;;
1754;Laerm;58380;48.312;9.246;2023-02-28T17:26:22;44.13;34.63;52.53;;
1754;Laerm;58380;48.312;9.246;2023-02-28T17:28:51;46.30;37.29;57.89;;
1754;Laerm;58380;48.312;9.246;2023-02-28T17:31:18;45.71;36.72;54.84;;
1754;Laerm;58380;48.312;9.246;2023-02-28T17:33:44;44.51;35.69;51.52;;
1754;Laerm;58380;48.312;9.246;2023-02-28T17:36:15;43.94;37.64;51.61;;
1754;Laerm;58380;48.312;9.246;2023-02-28T17:38:41;43.11;35.55;52.41;;
1754;Laerm;58380;48.312;9.246;2023-02-28T17:41:11;45.81;37.46;56.30;;
1754;Laerm;58380;48.312;9.246;2023-02-28T17:43:37;45.34;38.76;51.70;;
1754;Laerm;58380;48.312;9.246;2023-02-28T17:46:03;42.88;31.05;50.62;;
1754;Laerm;58380;48.312;9.246;2023-02-28T17:48:30;42.90;33.27;51.66;;
1754;Laerm;58380;48.312;9.246;2023-02-28T17:50:56;44.14;33.88;58.39;;
1754;Laerm;58380;48.312;9.246;2023-02-28T17:53:22;42.91;36.06;50.94;;
1754;Laerm;58380;48.312;9.246;2023-02-28T17:55:49;42.57;32.41;55.97;;
1754;Laerm;58380;48.312;9.246;2023-02-28T17:58:14;40.72;32.30;47.63;;
1754;Laerm;58380;48.312;9.246;2023-02-28T18:00:40;42.66;31.53;51.90;;
1754;Laerm;58380;48.312;9.246;2023-02-28T18:03:06;44.16;36.06;51.74;;
1754;Laerm;58380;48.312;9.246;2023-02-28T18:05:32;41.79;30.56;60.56;;
1754;Laerm;58380;48.312;9.246;2023-02-28T18:07:58;43.93;37.08;52.54;;
1754;Laerm;58380;48.312;9.246;2023-02-28T18:10:23;42.29;31.14;52.47;;
1754;Laerm;58380;48.312;9.246;2023-02-28T18:12:51;44.62;33.26;57.48;;
1754;Laerm;58380;48.312;9.246;2023-02-28T18:15:19;41.33;32.18;51.66;;
1754;Laerm;58380;48.312;9.246;2023-02-28T18:17:47;42.08;29.73;51.32;;
1754;Laerm;58380;48.312;9.246;2023-02-28T18:20:13;35.77;29.19;48.36;;
1754;Laerm;58380;48.312;9.246;2023-02-28T18:22:40;45.50;36.70;53.77;;
1754;Laerm;58380;48.312;9.246;2023-02-28T18:25:09;43.50;31.97;50.53;;
1754;Laerm;58380;48.312;9.246;2023-02-28T18:27:38;42.76;31.84;49.57;;
1754;Laerm;58380;48.312;9.246;2023-02-28T18:30:04;42.14;35.45;48.78;;
1754;Laerm;58380;48.312;9.246;2023-02-28T18:32:30;40.22;32.49;47.55;;
1754;Laerm;58380;48.312;9.246;2023-02-28T18:34:56;43.35;32.28;56.52;;
1754;Laerm;58380;48.312;9.246;2023-02-28T18:37:21;43.21;30.78;52.80;;
1754;Laerm;58380;48.312;9.246;2023-02-28T18:39:47;48.84;34.44;60.96;;
1754;Laerm;58380;48.312;9.246;2023-02-28T18:42:13;44.45;30.62;58.82;;
1754;Laerm;58380;48.312;9.246;2023-02-28T18:44:38;43.61;34.31;54.49;;
1754;Laerm;58380;48.312;9.246;2023-02-28T18:47:03;43.84;34.77;57.93;;
1754;Laerm;58380;48.312;9.246;2023-02-28T18:49:32;41.72;32.16;51.40;;
1754;Laerm;58380;48.312;9.246;2023-02-28T18:52:00;43.06;31.73;50.86;;
1754;Laerm;58380;48.312;9.246;2023-02-28T18:54:26;39.62;32.82;48.66;;
1754;Laerm;58380;48.312;9.246;2023-02-28T18:56:51;40.46;31.10;49.48;;
1754;Laerm;58380;48.312;9.246;2023-02-28T18:59:18;34.69;30.11;46.59;;
1754;Laerm;58380;48.312;9.246;2023-02-28T19:01:43;40.60;30.38;48.12;;
1754;Laerm;58380;48.312;9.246;2023-02-28T19:04:12;42.20;30.75;51.65;;
1754;Laerm;58380;48.312;9.246;2023-02-28T19:06:38;39.54;30.21;51.89;;
1754;Laerm;58380;48.312;9.246;2023-02-28T19:09:05;43.99;34.83;51.48;;
1754;Laerm;58380;48.312;9.246;2023-02-28T19:11:31;37.66;29.51;48.49;;
1754;Laerm;58380;48.312;9.246;2023-02-28T19:13:57;44.74;35.35;62.48;;
1754;Laerm;58380;48.312;9.246;2023-02-28T19:16:23;41.51;31.39;60.20;;
1754;Laerm;58380;48.312;9.246;2023-02-28T19:18:49;39.45;30.68;54.77;;
1754;Laerm;58380;48.312;9.246;2023-02-28T19:21:17;44.27;33.36;53.15;;
1754;Laerm;58380;48.312;9.246;2023-02-28T19:23:43;36.68;29.52;47.37;;
1754;Laerm;58380;48.312;9.246;2023-02-28T19:26:22;42.22;32.79;53.16;;
1754;Laerm;58380;48.312;9.246;2023-02-28T19:28:48;45.22;31.57;53.58;;
1754;Laerm;58380;48.312;9.246;2023-02-28T19:31:24;41.01;31.20;51.53;;
1754;Laerm;58380;48.312;9.246;2023-02-28T19:33:50;40.19;30.30;51.95;;
1754;Laerm;58380;48.312;9.246;2023-02-28T19:36:17;38.82;30.54;50.27;;
1754;Laerm;58380;48.312;9.246;2023-02-28T19:38:42;42.26;31.78;51.09;;
1754;Laerm;58380;48.312;9.246;2023-02-28T19:41:13;42.21;29.83;50.26;;
1754;Laerm;58380;48.312;9.246;2023-02-28T19:43:39;36.04;30.29;45.84;;
1754;Laerm;58380;48.312;9.246;2023-02-28T19:46:06;45.34;35.54;58.81;;
1754;Laerm;58380;48.312;9.246;2023-02-28T19:48:34;42.13;32.05;55.44;;
1754;Laerm;58380;48.312;9.246;2023-02-28T19:51:03;40.81;30.18;50.98;;
1754;Laerm;58380;48.312;9.246;2023-02-28T19:53:31;40.02;30.13;56.51;;
1754;Laerm;58380;48.312;9.246;2023-02-28T19:55:56;45.14;32.00;53.66;;
1754;Laerm;58380;48.312;9.246;2023-02-28T19:58:22;38.12;30.67;50.37;;
1754;Laerm;58380;48.312;9.246;2023-02-28T20:00:48;40.30;30.12;49.41;;
1754;Laerm;58380;48.312;9.246;2023-02-28T20:03:15;35.57;29.32;45.93;;
1754;Laerm;58380;48.312;9.246;2023-02-28T20:05:42;41.90;30.80;51.98;;
1754;Laerm;58380;48.312;9.246;2023-02-28T20:08:08;38.96;30.48;51.01;;
1754;Laerm;58380;48.312;9.246;2023-02-28T20:10:34;41.79;33.52;50.69;;
1754;Laerm;58380;48.312;9.246;2023-02-28T20:12:59;40.25;29.80;52.15;;
1754;Laerm;58380;48.312;9.246;2023-02-28T20:15:27;41.07;29.87;50.65;;
1754;Laerm;58380;48.312;9.246;2023-02-28T20:17:52;40.05;30.30;50.19;;
1754;Laerm;58380;48.312;9.246;2023-02-28T20:20:18;38.72;29.48;51.35;;
1754;Laerm;58380;48.312;9.246;2023-02-28T20:22:44;42.89;33.37;54.03;;
1754;Laerm;58380;48.312;9.246;2023-02-28T20:25:09;52.56;40.57;63.68;;
1754;Laerm;58380;48.312;9.246;2023-02-28T20:27:36;43.93;33.22;53.57;;
1754;Laerm;58380;48.312;9.246;2023-02-28T20:30:02;32.92;29.33;45.29;;
1754;Laerm;58380;48.312;9.246;2023-02-28T20:32:28;38.15;29.82;50.81;;
1754;Laerm;58380;48.312;9.246;2023-02-28T20:34:53;44.11;31.69;59.66;;
1754;Laerm;58380;48.312;9.246;2023-02-28T20:37:18;40.82;31.96;48.42;;
1754;Laerm;58380;48.312;9.246;2023-02-28T20:39:44;39.16;29.46;49.34;;
1754;Laerm;58380;48.312;9.246;2023-02-28T20:42:09;37.44;29.01;47.98;;
1754;Laerm;58380;48.312;9.246;2023-02-28T20:44:35;31.07;28.98;36.85;;
1754;Laerm;58380;48.312;9.246;2023-02-28T20:47:01;33.34;29.00;44.77;;
1754;Laerm;58380;48.312;9.246;2023-02-28T20:49:26;38.25;29.08;46.75;;
1754;Laerm;58380;48.312;9.246;2023-02-28T20:51:52;39.96;28.80;51.81;;
1754;Laerm;58380;48.312;9.246;2023-02-28T20:54:17;35.44;30.42;44.28;;
1754;Laerm;58380;48.312;9.246;2023-02-28T20:56:43;40.16;30.40;49.00;;
1754;Laerm;58380;48.312;9.246;2023-02-28T20:59:12;40.26;31.37;48.48;;
1754;Laerm;58380;48.312;9.246;2023-02-28T21:01:38;38.32;29.67;50.07;;
1754;Laerm;58380;48.312;9.246;2023-02-28T21:04:06;32.40;29.42;46.14;;
1754;Laerm;58380;48.312;9.246;2023-02-28T21:06:36;38.95;29.28;48.72;;
1754;Laerm;58380;48.312;9.246;2023-02-28T21:09:08;39.80;29.88;48.39;;
1754;Laerm;58380;48.312;9.246;2023-02-28T21:11:36;39.17;30.55;48.52;;
1754;Laerm;58380;48.312;9.246;2023-02-28T21:14:13;40.65;31.02;48.37;;
1754;Laerm;58380;48.312;9.246;2023-02-28T21:16:39;39.52;31.60;48.40;;
1754;Laerm;58380;48.312;9.246;2023-02-28T21:19:05;43.77;31.48;58.37;;
1754;Laerm;58380;48.312;9.246;2023-02-28T21:21:34;40.84;29.04;50.98;;
1754;Laerm;58380;48.312;9.246;2023-02-28T21:24:04;39.52;30.85;51.95;;
1754;Laerm;58380;48.312;9.246;2023-02-28T21:26:30;41.30;29.71;54.30;;
1754;Laerm;58380;48.312;9.246;2023-02-28T21:29:01;41.72;33.02;49.97;;
1754;Laerm;58380;48.312;9.246;2023-02-28T21:31:32;31.95;29.14;41.58;;
1754;Laerm;58380;48.312;9.246;2023-02-28T21:34:00;41.84;29.92;56.19;;
1754;Laerm;58380;48.312;9.246;2023-02-28T21:36:30;40.62;29.42;51.26;;
1754;Laerm;58380;48.312;9.246;2023-02-28T21:39:00;43.57;34.62;52.71;;
1754;Laerm;58380;48.312;9.246;2023-02-28T21:41:27;39.17;30.32;49.02;;
1754;Laerm;58380;48.312;9.246;2023-02-28T21:43:54;41.84;30.50;50.20;;
1754;Laerm;58380;48.312;9.246;2023-02-28T21:46:25;40.02;28.78;52.09;;
1754;Laerm;58380;48.312;9.246;2023-02-28T21:48:51;39.30;29.33;48.03;;
1754;Laerm;58380;48.312;9.246;2023-02-28T21:51:24;40.01;30.38;46.92;;
1754;Laerm;58380;48.312;9.246;2023-02-28T21:53:50;43.87;29.65;56.77;;
1754;Laerm;58380;48.312;9.246;2023-02-28T21:56:22;41.56;30.28;50.01;;
1754;Laerm;58380;48.312;9.246;2023-02-28T21:58:49;31.03;28.85;43.83;;
1754;Laerm;58380;48.312;9.246;2023-02-28T22:01:19;42.80;29.58;51.86;;
1754;Laerm;58380;48.312;9.246;2023-02-28T22:03:46;39.37;29.22;50.77;;
1754;Laerm;58380;48.312;9.246;2023-02-28T22:06:19;35.67;28.88;45.45;;
1754;Laerm;58380;48.312;9.246;2023-02-28T22:08:49;41.34;29.00;57.36;;
1754;Laerm;58380;48.312;9.246;2023-02-28T22:11:16;40.23;29.15;51.76;;
1754;Laerm;58380;48.312;9.246;2023-02-28T22:13:42;35.09;29.32;46.15;;
1754;Laerm;58380;48.312;9.246;2023-02-28T22:16:16;30.69;28.77;35.11;;
1754;Laerm;58380;48.312;9.246;2023-02-28T22:18:43;34.83;29.20;47.24;;
1754;Laerm;58380;48.312;9.246;2023-02-28T22:21:12;34.54;28.98;44.15;;
1754;Laerm;58380;48.312;9.246;2023-02-28T22:23:40;34.72;29.01;46.45;;
1754;Laerm;58380;48.312;9.246;2023-02-28T22:26:09;37.44;28.48;56.47;;
1754;Laerm;58380;48.312;9.246;2023-02-28T22:28:36;40.28;29.36;52.30;;
1754;Laerm;58380;48.312;9.246;2023-02-28T22:31:18;39.21;28.63;50.40;;
1754;Laerm;58380;48.312;9.246;2023-02-28T22:33:45;30.77;28.63;45.92;;
1754;Laerm;58380;48.312;9.246;2023-02-28T22:36:16;41.28;29.50;50.03;;
1754;Laerm;58380;48.312;9.246;2023-02-28T22:38:44;37.37;29.25;47.11;;
1754;Laerm;58380;48.312;9.246;2023-02-28T22:41:10;34.63;28.78;46.05;;
1754;Laerm;58380;48.312;9.246;2023-02-28T22:43:38;30.64;28.56;38.06;;
1754;Laerm;58380;48.312;9.246;2023-02-28T22:46:07;39.57;28.86;52.74;;
1754;Laerm;58380;48.312;9.246;2023-02-28T22:48:34;39.09;30.55;51.64;;
1754;Laerm;58380;48.312;9.246;2023-02-28T22:51:09;38.22;28.93;49.60;;
1754;Laerm;58380;48.312;9.246;2023-02-28T22:53:37;30.63;28.43;51.30;;
1754;Laerm;58380;48.312;9.246;2023-02-28T22:56:04;33.39;28.66;47.60;;
